sensor_id;sensor_type;location;lat;lon;timestamp;P1;durP1;ratioP1;P2;durP2;ratioP2
15126;SDS011;7664;52.008;4.748;2023-04-08T00:01:22;26.55;;;15.65;;
15126;SDS011;7664;52.008;4.748;2023-04-08T00:03:51;27.98;;;15.27;;
15126;SDS011;7664;52.008;4.748;2023-04-08T00:06:21;26.95;;;15.50;;
15126;SDS011;7664;52.008;4.748;2023-04-08T00:08:49;25.58;;;13.48;;
15126;SDS011;7664;52.008;4.748;2023-04-08T00:11:18;27.50;;;16.08;;
15126;SDS011;7664;52.008;4.748;2023-04-08T00:13:51;28.58;;;16.73;;
15126;SDS011;7664;52.008;4.748;2023-04-08T00:16:21;31.27;;;17.20;;
15126;SDS011;7664;52.008;4.748;2023-04-08T00:18:49;26.75;;;16.20;;
15126;SDS011;7664;52.008;4.748;2023-04-08T00:21:18;28.73;;;16.15;;
15126;SDS011;7664;52.008;4.748;2023-04-08T00:23:48;31.17;;;17.58;;
15126;SDS011;7664;52.008;4.748;2023-04-08T00:26:16;30.80;;;16.50;;
15126;SDS011;7664;52.008;4.748;2023-04-08T00:28:45;29.40;;;16.23;;
15126;SDS011;7664;52.008;4.748;2023-04-08T00:31:14;26.05;;;15.60;;
15126;SDS011;7664;52.008;4.748;2023-04-08T00:33:42;30.33;;;16.85;;
15126;SDS011;7664;52.008;4.748;2023-04-08T00:36:11;26.63;;;14.18;;
15126;SDS011;7664;52.008;4.748;2023-04-08T00:38:41;31.48;;;16.60;;
15126;SDS011;7664;52.008;4.748;2023-04-08T00:41:11;31.50;;;17.45;;
15126;SDS011;7664;52.008;4.748;2023-04-08T00:43:40;33.17;;;17.83;;
15126;SDS011;7664;52.008;4.748;2023-04-08T00:46:08;32.75;;;16.15;;
15126;SDS011;7664;52.008;4.748;2023-04-08T00:48:37;26.33;;;15.40;;
15126;SDS011;7664;52.008;4.748;2023-04-08T00:51:05;26.98;;;16.27;;
15126;SDS011;7664;52.008;4.748;2023-04-08T00:53:34;29.00;;;16.27;;
15126;SDS011;7664;52.008;4.748;2023-04-08T00:56:03;30.10;;;16.52;;
15126;SDS011;7664;52.008;4.748;2023-04-08T00:58:33;26.38;;;15.82;;
15126;SDS011;7664;52.008;4.748;2023-04-08T01:01:02;28.13;;;15.32;;
15126;SDS011;7664;52.008;4.748;2023-04-08T01:03:34;28.15;;;16.45;;
15126;SDS011;7664;52.008;4.748;2023-04-08T01:06:05;29.15;;;16.73;;
15126;SDS011;7664;52.008;4.748;2023-04-08T01:08:36;29.83;;;16.90;;
15126;SDS011;7664;52.008;4.748;2023-04-08T01:11:12;29.85;;;15.73;;
15126;SDS011;7664;52.008;4.748;2023-04-08T01:13:43;28.25;;;15.45;;
15126;SDS011;7664;52.008;4.748;2023-04-08T01:16:13;26.63;;;15.68;;
15126;SDS011;7664;52.008;4.748;2023-04-08T01:18:42;28.73;;;14.88;;
15126;SDS011;7664;52.008;4.748;2023-04-08T01:21:11;29.25;;;15.13;;
15126;SDS011;7664;52.008;4.748;2023-04-08T01:23:52;26.95;;;15.25;;
15126;SDS011;7664;52.008;4.748;2023-04-08T01:26:23;29.02;;;15.32;;
15126;SDS011;7664;52.008;4.748;2023-04-08T01:28:59;32.03;;;16.83;;
15126;SDS011;7664;52.008;4.748;2023-04-08T01:31:29;31.27;;;17.70;;
15126;SDS011;7664;52.008;4.748;2023-04-08T01:34:01;25.60;;;15.27;;
15126;SDS011;7664;52.008;4.748;2023-04-08T01:36:34;29.58;;;15.98;;
15126;SDS011;7664;52.008;4.748;2023-04-08T01:39:04;26.95;;;16.05;;
15126;SDS011;7664;52.008;4.748;2023-04-08T01:41:34;26.13;;;16.17;;
15126;SDS011;7664;52.008;4.748;2023-04-08T01:44:03;23.20;;;14.30;;
15126;SDS011;7664;52.008;4.748;2023-04-08T01:46:31;28.20;;;15.80;;
15126;SDS011;7664;52.008;4.748;2023-04-08T01:49:01;22.92;;;13.50;;
15126;SDS011;7664;52.008;4.748;2023-04-08T01:51:29;26.33;;;15.27;;
15126;SDS011;7664;52.008;4.748;2023-04-08T01:53:58;24.33;;;13.30;;
15126;SDS011;7664;52.008;4.748;2023-04-08T01:56:27;26.08;;;14.57;;
15126;SDS011;7664;52.008;4.748;2023-04-08T01:58:58;20.15;;;12.35;;
15126;SDS011;7664;52.008;4.748;2023-04-08T02:01:30;23.20;;;13.98;;
15126;SDS011;7664;52.008;4.748;2023-04-08T02:04:06;23.98;;;13.70;;
15126;SDS011;7664;52.008;4.748;2023-04-08T02:06:35;23.80;;;12.98;;
15126;SDS011;7664;52.008;4.748;2023-04-08T02:09:08;22.02;;;11.70;;
15126;SDS011;7664;52.008;4.748;2023-04-08T02:11:37;22.60;;;12.93;;
15126;SDS011;7664;52.008;4.748;2023-04-08T02:14:09;23.35;;;14.15;;
15126;SDS011;7664;52.008;4.748;2023-04-08T02:16:38;19.83;;;11.55;;
15126;SDS011;7664;52.008;4.748;2023-04-08T02:19:09;22.33;;;12.38;;
15126;SDS011;7664;52.008;4.748;2023-04-08T02:21:41;21.10;;;11.85;;
15126;SDS011;7664;52.008;4.748;2023-04-08T02:24:19;20.50;;;13.30;;
15126;SDS011;7664;52.008;4.748;2023-04-08T02:26:48;18.77;;;12.15;;
15126;SDS011;7664;52.008;4.748;2023-04-08T02:29:18;18.95;;;11.65;;
15126;SDS011;7664;52.008;4.748;2023-04-08T02:31:52;25.65;;;13.32;;
15126;SDS011;7664;52.008;4.748;2023-04-08T02:34:24;22.60;;;12.75;;
15126;SDS011;7664;52.008;4.748;2023-04-08T02:36:59;20.52;;;11.98;;
15126;SDS011;7664;52.008;4.748;2023-04-08T02:39:29;19.63;;;12.77;;
15126;SDS011;7664;52.008;4.748;2023-04-08T02:41:58;21.70;;;13.30;;
15126;SDS011;7664;52.008;4.748;2023-04-08T02:44:28;20.90;;;12.02;;
15126;SDS011;7664;52.008;4.748;2023-04-08T02:47:01;19.45;;;11.90;;
15126;SDS011;7664;52.008;4.748;2023-04-08T02:49:33;20.17;;;11.82;;
15126;SDS011;7664;52.008;4.748;2023-04-08T02:52:02;15.68;;;10.23;;
15126;SDS011;7664;52.008;4.748;2023-04-08T02:54:30;19.17;;;11.15;;
15126;SDS011;7664;52.008;4.748;2023-04-08T02:56:59;26.95;;;11.23;;
15126;SDS011;7664;52.008;4.748;2023-04-08T02:59:28;25.35;;;10.23;;
15126;SDS011;7664;52.008;4.748;2023-04-08T03:02:03;17.33;;;9.95;;
15126;SDS011;7664;52.008;4.748;2023-04-08T03:04:31;19.20;;;9.82;;
15126;SDS011;7664;52.008;4.748;2023-04-08T03:07:04;21.58;;;11.77;;
15126;SDS011;7664;52.008;4.748;2023-04-08T03:09:34;14.70;;;9.90;;
15126;SDS011;7664;52.008;4.748;2023-04-08T03:12:02;16.77;;;10.55;;
15126;SDS011;7664;52.008;4.748;2023-04-08T03:14:32;16.75;;;10.20;;
15126;SDS011;7664;52.008;4.748;2023-04-08T03:17:01;22.80;;;11.02;;
15126;SDS011;7664;52.008;4.748;2023-04-08T03:19:29;18.40;;;10.30;;
15126;SDS011;7664;52.008;4.748;2023-04-08T03:21:58;16.52;;;10.18;;
15126;SDS011;7664;52.008;4.748;2023-04-08T03:24:26;20.77;;;9.43;;
15126;SDS011;7664;52.008;4.748;2023-04-08T03:26:55;14.50;;;9.23;;
15126;SDS011;7664;52.008;4.748;2023-04-08T03:29:24;14.90;;;10.00;;
15126;SDS011;7664;52.008;4.748;2023-04-08T03:31:53;14.82;;;9.55;;
15126;SDS011;7664;52.008;4.748;2023-04-08T03:34:22;13.13;;;9.00;;
15126;SDS011;7664;52.008;4.748;2023-04-08T03:36:50;17.05;;;9.50;;
15126;SDS011;7664;52.008;4.748;2023-04-08T03:39:19;19.17;;;10.23;;
15126;SDS011;7664;52.008;4.748;2023-04-08T03:41:47;17.00;;;9.75;;
15126;SDS011;7664;52.008;4.748;2023-04-08T03:44:15;15.63;;;8.80;;
15126;SDS011;7664;52.008;4.748;2023-04-08T03:46:43;33.80;;;10.82;;
15126;SDS011;7664;52.008;4.748;2023-04-08T03:49:13;14.27;;;8.68;;
15126;SDS011;7664;52.008;4.748;2023-04-08T03:51:48;18.10;;;9.25;;
15126;SDS011;7664;52.008;4.748;2023-04-08T03:54:16;15.90;;;9.60;;
15126;SDS011;7664;52.008;4.748;2023-04-08T03:56:45;15.57;;;9.13;;
15126;SDS011;7664;52.008;4.748;2023-04-08T03:59:18;13.88;;;8.75;;
15126;SDS011;7664;52.008;4.748;2023-04-08T04:01:46;32.22;;;9.77;;
15126;SDS011;7664;52.008;4.748;2023-04-08T04:04:18;16.25;;;9.80;;
15126;SDS011;7664;52.008;4.748;2023-04-08T04:06:48;15.23;;;9.52;;
15126;SDS011;7664;52.008;4.748;2023-04-08T04:09:17;15.25;;;10.00;;
15126;SDS011;7664;52.008;4.748;2023-04-08T04:11:45;15.68;;;9.85;;
15126;SDS011;7664;52.008;4.748;2023-04-08T04:14:13;14.50;;;8.93;;
15126;SDS011;7664;52.008;4.748;2023-04-08T04:16:46;34.03;;;9.38;;
15126;SDS011;7664;52.008;4.748;2023-04-08T04:19:15;13.15;;;8.18;;
15126;SDS011;7664;52.008;4.748;2023-04-08T04:21:47;19.52;;;9.15;;
15126;SDS011;7664;52.008;4.748;2023-04-08T04:24:17;27.85;;;9.15;;
15126;SDS011;7664;52.008;4.748;2023-04-08T04:26:46;14.68;;;8.75;;
15126;SDS011;7664;52.008;4.748;2023-04-08T04:29:14;12.55;;;8.30;;
15126;SDS011;7664;52.008;4.748;2023-04-08T04:31:42;13.25;;;8.75;;
15126;SDS011;7664;52.008;4.748;2023-04-08T04:34:11;23.05;;;8.93;;
15126;SDS011;7664;52.008;4.748;2023-04-08T04:36:42;24.05;;;7.88;;
15126;SDS011;7664;52.008;4.748;2023-04-08T04:39:12;22.98;;;7.18;;
15126;SDS011;7664;52.008;4.748;2023-04-08T04:41:40;12.10;;;7.65;;
15126;SDS011;7664;52.008;4.748;2023-04-08T04:44:14;9.82;;;6.80;;
15126;SDS011;7664;52.008;4.748;2023-04-08T04:46:42;14.98;;;7.57;;
15126;SDS011;7664;52.008;4.748;2023-04-08T04:49:11;11.43;;;7.63;;
15126;SDS011;7664;52.008;4.748;2023-04-08T04:51:39;13.40;;;8.15;;
15126;SDS011;7664;52.008;4.748;2023-04-08T04:54:10;12.55;;;8.23;;
15126;SDS011;7664;52.008;4.748;2023-04-08T04:56:39;14.35;;;8.82;;
15126;SDS011;7664;52.008;4.748;2023-04-08T04:59:10;15.13;;;8.63;;
15126;SDS011;7664;52.008;4.748;2023-04-08T05:01:38;12.93;;;8.25;;
15126;SDS011;7664;52.008;4.748;2023-04-08T05:04:09;13.18;;;8.73;;
15126;SDS011;7664;52.008;4.748;2023-04-08T05:06:40;15.65;;;9.55;;
15126;SDS011;7664;52.008;4.748;2023-04-08T05:09:08;11.32;;;8.43;;
15126;SDS011;7664;52.008;4.748;2023-04-08T05:11:36;13.30;;;9.15;;
15126;SDS011;7664;52.008;4.748;2023-04-08T05:14:06;15.48;;;8.52;;
15126;SDS011;7664;52.008;4.748;2023-04-08T05:16:34;13.18;;;9.02;;
15126;SDS011;7664;52.008;4.748;2023-04-08T05:19:05;13.00;;;8.75;;
15126;SDS011;7664;52.008;4.748;2023-04-08T05:21:33;12.82;;;9.27;;
15126;SDS011;7664;52.008;4.748;2023-04-08T05:24:01;14.57;;;8.88;;
15126;SDS011;7664;52.008;4.748;2023-04-08T05:26:30;13.70;;;9.05;;
15126;SDS011;7664;52.008;4.748;2023-04-08T05:28:58;12.52;;;8.23;;
15126;SDS011;7664;52.008;4.748;2023-04-08T05:31:28;14.13;;;8.63;;
15126;SDS011;7664;52.008;4.748;2023-04-08T05:33:59;15.98;;;9.88;;
15126;SDS011;7664;52.008;4.748;2023-04-08T05:36:27;15.13;;;8.80;;
15126;SDS011;7664;52.008;4.748;2023-04-08T05:38:57;35.17;;;9.77;;
15126;SDS011;7664;52.008;4.748;2023-04-08T05:41:27;16.92;;;10.02;;
15126;SDS011;7664;52.008;4.748;2023-04-08T05:43:56;20.88;;;9.73;;
15126;SDS011;7664;52.008;4.748;2023-04-08T05:46:24;20.92;;;10.30;;
15126;SDS011;7664;52.008;4.748;2023-04-08T05:48:56;14.07;;;9.73;;
15126;SDS011;7664;52.008;4.748;2023-04-08T05:51:25;18.00;;;9.63;;
15126;SDS011;7664;52.008;4.748;2023-04-08T05:53:53;14.25;;;10.05;;
15126;SDS011;7664;52.008;4.748;2023-04-08T05:56:21;18.08;;;10.68;;
15126;SDS011;7664;52.008;4.748;2023-04-08T05:58:56;17.20;;;9.35;;
15126;SDS011;7664;52.008;4.748;2023-04-08T06:01:25;15.40;;;9.80;;
15126;SDS011;7664;52.008;4.748;2023-04-08T06:03:54;16.67;;;9.48;;
15126;SDS011;7664;52.008;4.748;2023-04-08T06:06:24;16.88;;;10.85;;
15126;SDS011;7664;52.008;4.748;2023-04-08T06:08:52;16.35;;;10.25;;
15126;SDS011;7664;52.008;4.748;2023-04-08T06:11:21;22.05;;;10.90;;
15126;SDS011;7664;52.008;4.748;2023-04-08T06:13:49;24.23;;;11.68;;
15126;SDS011;7664;52.008;4.748;2023-04-08T06:16:18;15.82;;;10.95;;
15126;SDS011;7664;52.008;4.748;2023-04-08T06:18:48;16.35;;;11.25;;
15126;SDS011;7664;52.008;4.748;2023-04-08T06:21:17;15.32;;;10.00;;
15126;SDS011;7664;52.008;4.748;2023-04-08T06:23:48;16.42;;;11.18;;
15126;SDS011;7664;52.008;4.748;2023-04-08T06:26:18;18.30;;;11.73;;
15126;SDS011;7664;52.008;4.748;2023-04-08T06:28:47;18.55;;;11.48;;
15126;SDS011;7664;52.008;4.748;2023-04-08T06:31:18;17.17;;;10.82;;
15126;SDS011;7664;52.008;4.748;2023-04-08T06:33:47;17.85;;;11.85;;
15126;SDS011;7664;52.008;4.748;2023-04-08T06:36:15;21.83;;;13.30;;
15126;SDS011;7664;52.008;4.748;2023-04-08T06:38:44;17.95;;;11.93;;
15126;SDS011;7664;52.008;4.748;2023-04-08T06:41:13;17.23;;;11.65;;
15126;SDS011;7664;52.008;4.748;2023-04-08T06:43:47;18.65;;;11.98;;
15126;SDS011;7664;52.008;4.748;2023-04-08T06:46:18;26.92;;;14.38;;
15126;SDS011;7664;52.008;4.748;2023-04-08T06:48:47;22.60;;;13.85;;
15126;SDS011;7664;52.008;4.748;2023-04-08T06:51:16;17.65;;;11.30;;
15126;SDS011;7664;52.008;4.748;2023-04-08T06:53:44;20.63;;;12.90;;
15126;SDS011;7664;52.008;4.748;2023-04-08T06:56:14;19.27;;;12.27;;
15126;SDS011;7664;52.008;4.748;2023-04-08T06:58:42;18.63;;;12.85;;
15126;SDS011;7664;52.008;4.748;2023-04-08T07:01:10;22.27;;;13.40;;
15126;SDS011;7664;52.008;4.748;2023-04-08T07:03:39;23.58;;;13.70;;
15126;SDS011;7664;52.008;4.748;2023-04-08T07:06:07;22.23;;;12.93;;
15126;SDS011;7664;52.008;4.748;2023-04-08T07:08:38;23.25;;;14.02;;
15126;SDS011;7664;52.008;4.748;2023-04-08T07:11:08;22.17;;;13.85;;
15126;SDS011;7664;52.008;4.748;2023-04-08T07:13:40;21.50;;;13.93;;
15126;SDS011;7664;52.008;4.748;2023-04-08T07:16:08;21.60;;;14.25;;
15126;SDS011;7664;52.008;4.748;2023-04-08T07:18:37;19.90;;;13.80;;
15126;SDS011;7664;52.008;4.748;2023-04-08T07:21:06;19.85;;;13.00;;
15126;SDS011;7664;52.008;4.748;2023-04-08T07:23:39;22.40;;;14.20;;
15126;SDS011;7664;52.008;4.748;2023-04-08T07:26:12;19.38;;;12.60;;
15126;SDS011;7664;52.008;4.748;2023-04-08T07:28:42;20.40;;;13.13;;
15126;SDS011;7664;52.008;4.748;2023-04-08T07:31:11;18.67;;;11.77;;
15126;SDS011;7664;52.008;4.748;2023-04-08T07:33:39;19.25;;;12.60;;
15126;SDS011;7664;52.008;4.748;2023-04-08T07:36:08;18.05;;;12.85;;
15126;SDS011;7664;52.008;4.748;2023-04-08T07:38:37;22.13;;;14.13;;
15126;SDS011;7664;52.008;4.748;2023-04-08T07:41:06;17.85;;;12.10;;
15126;SDS011;7664;52.008;4.748;2023-04-08T07:43:34;19.27;;;12.23;;
15126;SDS011;7664;52.008;4.748;2023-04-08T07:46:06;20.30;;;12.43;;
15126;SDS011;7664;52.008;4.748;2023-04-08T07:48:35;16.92;;;11.55;;
15126;SDS011;7664;52.008;4.748;2023-04-08T07:51:04;17.58;;;12.80;;
15126;SDS011;7664;52.008;4.748;2023-04-08T07:53:36;18.80;;;12.07;;
15126;SDS011;7664;52.008;4.748;2023-04-08T07:56:09;19.05;;;12.25;;
15126;SDS011;7664;52.008;4.748;2023-04-08T07:58:38;17.77;;;12.30;;
15126;SDS011;7664;52.008;4.748;2023-04-08T08:01:14;19.13;;;12.70;;
15126;SDS011;7664;52.008;4.748;2023-04-08T08:03:43;18.98;;;11.57;;
15126;SDS011;7664;52.008;4.748;2023-04-08T08:06:13;20.48;;;11.25;;
15126;SDS011;7664;52.008;4.748;2023-04-08T08:08:42;18.58;;;11.63;;
15126;SDS011;7664;52.008;4.748;2023-04-08T08:11:19;16.10;;;10.30;;
15126;SDS011;7664;52.008;4.748;2023-04-08T08:13:48;14.82;;;10.23;;
15126;SDS011;7664;52.008;4.748;2023-04-08T08:16:18;13.68;;;10.30;;
15126;SDS011;7664;52.008;4.748;2023-04-08T08:18:46;15.10;;;10.75;;
15126;SDS011;7664;52.008;4.748;2023-04-08T08:21:15;14.52;;;10.82;;
15126;SDS011;7664;52.008;4.748;2023-04-08T08:23:46;14.07;;;9.85;;
15126;SDS011;7664;52.008;4.748;2023-04-08T08:26:15;12.90;;;9.35;;
15126;SDS011;7664;52.008;4.748;2023-04-08T08:28:43;13.40;;;9.38;;
15126;SDS011;7664;52.008;4.748;2023-04-08T08:31:14;14.70;;;10.48;;
15126;SDS011;7664;52.008;4.748;2023-04-08T08:33:43;14.68;;;10.02;;
15126;SDS011;7664;52.008;4.748;2023-04-08T08:36:19;14.13;;;9.25;;
15126;SDS011;7664;52.008;4.748;2023-04-08T08:38:47;12.30;;;9.13;;
15126;SDS011;7664;52.008;4.748;2023-04-08T08:41:19;12.88;;;9.70;;
15126;SDS011;7664;52.008;4.748;2023-04-08T08:43:52;13.10;;;9.00;;
15126;SDS011;7664;52.008;4.748;2023-04-08T08:46:21;11.60;;;8.77;;
15126;SDS011;7664;52.008;4.748;2023-04-08T08:48:53;12.30;;;8.38;;
15126;SDS011;7664;52.008;4.748;2023-04-08T08:51:24;11.55;;;8.90;;
15126;SDS011;7664;52.008;4.748;2023-04-08T08:54:00;13.35;;;9.50;;
15126;SDS011;7664;52.008;4.748;2023-04-08T08:56:31;14.88;;;9.30;;
15126;SDS011;7664;52.008;4.748;2023-04-08T08:59:00;14.75;;;9.50;;
15126;SDS011;7664;52.008;4.748;2023-04-08T09:01:29;12.82;;;9.25;;
15126;SDS011;7664;52.008;4.748;2023-04-08T09:04:09;15.20;;;11.00;;
15126;SDS011;7664;52.008;4.748;2023-04-08T09:06:38;14.45;;;9.93;;
15126;SDS011;7664;52.008;4.748;2023-04-08T09:09:07;13.88;;;10.32;;
15126;SDS011;7664;52.008;4.748;2023-04-08T09:11:37;15.60;;;11.07;;
15126;SDS011;7664;52.008;4.748;2023-04-08T09:14:16;16.92;;;11.20;;
15126;SDS011;7664;52.008;4.748;2023-04-08T09:16:47;14.00;;;10.05;;
15126;SDS011;7664;52.008;4.748;2023-04-08T09:19:19;16.83;;;12.52;;
15126;SDS011;7664;52.008;4.748;2023-04-08T09:24:31;16.20;;;11.32;;
15126;SDS011;7664;52.008;4.748;2023-04-08T09:27:04;14.55;;;10.82;;
15126;SDS011;7664;52.008;4.748;2023-04-08T09:29:32;14.38;;;10.88;;
15126;SDS011;7664;52.008;4.748;2023-04-08T09:32:05;14.45;;;11.02;;
15126;SDS011;7664;52.008;4.748;2023-04-08T09:34:35;17.67;;;12.48;;
15126;SDS011;7664;52.008;4.748;2023-04-08T09:37:03;17.00;;;12.77;;
15126;SDS011;7664;52.008;4.748;2023-04-08T09:39:32;17.85;;;12.82;;
15126;SDS011;7664;52.008;4.748;2023-04-08T09:42:03;17.05;;;13.15;;
15126;SDS011;7664;52.008;4.748;2023-04-08T09:44:33;23.75;;;15.77;;
15126;SDS011;7664;52.008;4.748;2023-04-08T09:47:05;19.92;;;14.43;;
15126;SDS011;7664;52.008;4.748;2023-04-08T09:49:39;21.58;;;15.48;;
15126;SDS011;7664;52.008;4.748;2023-04-08T09:52:10;21.63;;;14.32;;
15126;SDS011;7664;52.008;4.748;2023-04-08T09:54:43;19.88;;;14.43;;
15126;SDS011;7664;52.008;4.748;2023-04-08T09:57:12;32.85;;;16.27;;
15126;SDS011;7664;52.008;4.748;2023-04-08T09:59:44;23.70;;;15.93;;
15126;SDS011;7664;52.008;4.748;2023-04-08T10:02:18;20.52;;;15.80;;
15126;SDS011;7664;52.008;4.748;2023-04-08T10:04:55;22.67;;;16.20;;
15126;SDS011;7664;52.008;4.748;2023-04-08T10:07:26;19.30;;;13.85;;
15126;SDS011;7664;52.008;4.748;2023-04-08T10:09:56;20.42;;;14.90;;
15126;SDS011;7664;52.008;4.748;2023-04-08T10:12:29;18.65;;;14.10;;
15126;SDS011;7664;52.008;4.748;2023-04-08T10:17:44;18.00;;;12.90;;
15126;SDS011;7664;52.008;4.748;2023-04-08T10:22:57;15.90;;;12.18;;
15126;SDS011;7664;52.008;4.748;2023-04-08T10:25:30;15.98;;;11.15;;
15126;SDS011;7664;52.008;4.748;2023-04-08T10:27:58;14.73;;;10.82;;
15126;SDS011;7664;52.008;4.748;2023-04-08T10:30:38;15.60;;;10.98;;
15126;SDS011;7664;52.008;4.748;2023-04-08T10:33:10;14.10;;;10.68;;
15126;SDS011;7664;52.008;4.748;2023-04-08T10:35:40;14.25;;;10.25;;
15126;SDS011;7664;52.008;4.748;2023-04-08T10:38:15;16.52;;;12.02;;
15126;SDS011;7664;52.008;4.748;2023-04-08T10:40:44;16.02;;;11.40;;
15126;SDS011;7664;52.008;4.748;2023-04-08T10:43:15;13.25;;;10.52;;
15126;SDS011;7664;52.008;4.748;2023-04-08T10:45:44;13.70;;;10.07;;
15126;SDS011;7664;52.008;4.748;2023-04-08T10:48:17;13.38;;;10.38;;
15126;SDS011;7664;52.008;4.748;2023-04-08T10:50:53;15.15;;;9.38;;
15126;SDS011;7664;52.008;4.748;2023-04-08T10:53:26;14.70;;;10.60;;
15126;SDS011;7664;52.008;4.748;2023-04-08T10:56:02;15.13;;;10.05;;
15126;SDS011;7664;52.008;4.748;2023-04-08T10:58:31;13.77;;;9.77;;
15126;SDS011;7664;52.008;4.748;2023-04-08T11:01:03;12.57;;;9.80;;
15126;SDS011;7664;52.008;4.748;2023-04-08T11:03:32;12.35;;;9.00;;
15126;SDS011;7664;52.008;4.748;2023-04-08T11:06:01;12.00;;;9.10;;
15126;SDS011;7664;52.008;4.748;2023-04-08T11:08:31;14.07;;;10.00;;
15126;SDS011;7664;52.008;4.748;2023-04-08T11:11:00;11.70;;;9.25;;
15126;SDS011;7664;52.008;4.748;2023-04-08T11:13:29;14.95;;;9.88;;
15126;SDS011;7664;52.008;4.748;2023-04-08T11:15:58;13.63;;;9.43;;
15126;SDS011;7664;52.008;4.748;2023-04-08T11:18:43;12.85;;;9.55;;
15126;SDS011;7664;52.008;4.748;2023-04-08T11:21:13;13.15;;;9.60;;
15126;SDS011;7664;52.008;4.748;2023-04-08T11:23:44;13.32;;;8.95;;
15126;SDS011;7664;52.008;4.748;2023-04-08T11:26:12;13.18;;;9.32;;
15126;SDS011;7664;52.008;4.748;2023-04-08T11:28:42;12.80;;;8.65;;
15126;SDS011;7664;52.008;4.748;2023-04-08T11:31:11;12.18;;;9.38;;
15126;SDS011;7664;52.008;4.748;2023-04-08T11:33:43;14.35;;;9.73;;
15126;SDS011;7664;52.008;4.748;2023-04-08T11:36:11;11.82;;;9.15;;
15126;SDS011;7664;52.008;4.748;2023-04-08T11:38:40;12.10;;;9.23;;
15126;SDS011;7664;52.008;4.748;2023-04-08T11:41:10;12.27;;;8.90;;
15126;SDS011;7664;52.008;4.748;2023-04-08T11:43:38;13.45;;;8.02;;
15126;SDS011;7664;52.008;4.748;2023-04-08T11:46:09;11.85;;;8.98;;
15126;SDS011;7664;52.008;4.748;2023-04-08T11:48:45;12.15;;;8.70;;
15126;SDS011;7664;52.008;4.748;2023-04-08T11:51:23;13.82;;;8.55;;
15126;SDS011;7664;52.008;4.748;2023-04-08T11:53:53;11.23;;;7.68;;
15126;SDS011;7664;52.008;4.748;2023-04-08T11:56:24;13.55;;;8.85;;
15126;SDS011;7664;52.008;4.748;2023-04-08T11:58:58;10.70;;;8.00;;
15126;SDS011;7664;52.008;4.748;2023-04-08T12:01:29;11.88;;;8.88;;
15126;SDS011;7664;52.008;4.748;2023-04-08T12:04:00;11.75;;;8.88;;
15126;SDS011;7664;52.008;4.748;2023-04-08T12:06:32;10.35;;;7.55;;
15126;SDS011;7664;52.008;4.748;2023-04-08T12:09:01;8.93;;;6.55;;
15126;SDS011;7664;52.008;4.748;2023-04-08T12:11:33;14.18;;;7.25;;
15126;SDS011;7664;52.008;4.748;2023-04-08T12:14:04;11.27;;;7.32;;
15126;SDS011;7664;52.008;4.748;2023-04-08T12:16:32;11.98;;;7.10;;
15126;SDS011;7664;52.008;4.748;2023-04-08T12:19:00;12.93;;;7.68;;
15126;SDS011;7664;52.008;4.748;2023-04-08T12:21:30;9.32;;;6.95;;
15126;SDS011;7664;52.008;4.748;2023-04-08T12:23:59;9.90;;;6.75;;
15126;SDS011;7664;52.008;4.748;2023-04-08T12:26:27;17.05;;;8.10;;
15126;SDS011;7664;52.008;4.748;2023-04-08T12:28:57;9.90;;;6.63;;
15126;SDS011;7664;52.008;4.748;2023-04-08T12:31:26;9.45;;;6.93;;
15126;SDS011;7664;52.008;4.748;2023-04-08T12:33:54;12.18;;;7.32;;
15126;SDS011;7664;52.008;4.748;2023-04-08T12:36:25;11.68;;;7.43;;
15126;SDS011;7664;52.008;4.748;2023-04-08T12:38:54;11.13;;;6.63;;
15126;SDS011;7664;52.008;4.748;2023-04-08T12:41:22;9.75;;;6.50;;
15126;SDS011;7664;52.008;4.748;2023-04-08T12:43:51;9.68;;;7.00;;
15126;SDS011;7664;52.008;4.748;2023-04-08T12:46:20;10.85;;;6.50;;
15126;SDS011;7664;52.008;4.748;2023-04-08T12:48:49;8.07;;;5.85;;
15126;SDS011;7664;52.008;4.748;2023-04-08T12:51:29;10.77;;;6.78;;
15126;SDS011;7664;52.008;4.748;2023-04-08T12:53:58;10.18;;;6.07;;
15126;SDS011;7664;52.008;4.748;2023-04-08T12:56:27;8.25;;;5.53;;
15126;SDS011;7664;52.008;4.748;2023-04-08T12:58:56;10.63;;;6.25;;
15126;SDS011;7664;52.008;4.748;2023-04-08T13:01:26;9.27;;;6.28;;
15126;SDS011;7664;52.008;4.748;2023-04-08T13:03:56;12.45;;;6.75;;
15126;SDS011;7664;52.008;4.748;2023-04-08T13:06:25;14.55;;;8.68;;
15126;SDS011;7664;52.008;4.748;2023-04-08T13:08:57;8.23;;;5.88;;
15126;SDS011;7664;52.008;4.748;2023-04-08T13:11:28;11.88;;;6.43;;
15126;SDS011;7664;52.008;4.748;2023-04-08T13:14:00;7.55;;;5.70;;
15126;SDS011;7664;52.008;4.748;2023-04-08T13:16:30;9.05;;;6.57;;
15126;SDS011;7664;52.008;4.748;2023-04-08T13:18:58;10.75;;;7.07;;
15126;SDS011;7664;52.008;4.748;2023-04-08T13:21:27;10.20;;;6.82;;
15126;SDS011;7664;52.008;4.748;2023-04-08T13:23:56;9.82;;;6.72;;
15126;SDS011;7664;52.008;4.748;2023-04-08T13:26:32;9.77;;;6.20;;
15126;SDS011;7664;52.008;4.748;2023-04-08T13:29:00;9.55;;;5.88;;
15126;SDS011;7664;52.008;4.748;2023-04-08T13:31:37;10.13;;;6.15;;
15126;SDS011;7664;52.008;4.748;2023-04-08T13:34:06;12.30;;;6.68;;
15126;SDS011;7664;52.008;4.748;2023-04-08T13:36:34;10.95;;;5.97;;
15126;SDS011;7664;52.008;4.748;2023-04-08T13:39:02;11.57;;;6.43;;
15126;SDS011;7664;52.008;4.748;2023-04-08T13:41:31;10.50;;;6.35;;
15126;SDS011;7664;52.008;4.748;2023-04-08T13:44:01;12.98;;;6.10;;
15126;SDS011;7664;52.008;4.748;2023-04-08T13:46:31;10.40;;;6.38;;
15126;SDS011;7664;52.008;4.748;2023-04-08T13:49:00;10.27;;;5.25;;
15126;SDS011;7664;52.008;4.748;2023-04-08T13:51:29;10.18;;;5.55;;
15126;SDS011;7664;52.008;4.748;2023-04-08T13:53:58;11.93;;;5.93;;
15126;SDS011;7664;52.008;4.748;2023-04-08T13:56:28;11.63;;;5.93;;
15126;SDS011;7664;52.008;4.748;2023-04-08T13:58:57;9.82;;;4.72;;
15126;SDS011;7664;52.008;4.748;2023-04-08T14:01:25;9.18;;;5.85;;
15126;SDS011;7664;52.008;4.748;2023-04-08T14:03:54;11.63;;;6.18;;
15126;SDS011;7664;52.008;4.748;2023-04-08T14:06:27;10.93;;;5.70;;
15126;SDS011;7664;52.008;4.748;2023-04-08T14:08:56;9.35;;;5.13;;
15126;SDS011;7664;52.008;4.748;2023-04-08T14:11:24;11.13;;;5.68;;
15126;SDS011;7664;52.008;4.748;2023-04-08T14:13:53;9.05;;;5.05;;
15126;SDS011;7664;52.008;4.748;2023-04-08T14:16:21;10.73;;;5.82;;
15126;SDS011;7664;52.008;4.748;2023-04-08T14:18:50;10.05;;;5.22;;
15126;SDS011;7664;52.008;4.748;2023-04-08T14:21:19;10.50;;;5.38;;
15126;SDS011;7664;52.008;4.748;2023-04-08T14:23:49;8.95;;;4.90;;
15126;SDS011;7664;52.008;4.748;2023-04-08T14:26:17;9.23;;;4.85;;
15126;SDS011;7664;52.008;4.748;2023-04-08T14:28:48;7.82;;;5.18;;
15126;SDS011;7664;52.008;4.748;2023-04-08T14:31:17;11.15;;;4.80;;
15126;SDS011;7664;52.008;4.748;2023-04-08T14:33:50;9.82;;;4.50;;
15126;SDS011;7664;52.008;4.748;2023-04-08T14:36:18;10.95;;;5.25;;
15126;SDS011;7664;52.008;4.748;2023-04-08T14:38:50;9.98;;;5.00;;
15126;SDS011;7664;52.008;4.748;2023-04-08T14:41:19;12.52;;;5.15;;
15126;SDS011;7664;52.008;4.748;2023-04-08T14:43:47;8.48;;;5.00;;
15126;SDS011;7664;52.008;4.748;2023-04-08T14:46:15;12.13;;;5.18;;
15126;SDS011;7664;52.008;4.748;2023-04-08T14:48:47;8.70;;;5.03;;
15126;SDS011;7664;52.008;4.748;2023-04-08T14:51:15;9.77;;;5.25;;
15126;SDS011;7664;52.008;4.748;2023-04-08T14:53:44;8.70;;;5.55;;
15126;SDS011;7664;52.008;4.748;2023-04-08T14:56:14;11.90;;;5.43;;
15126;SDS011;7664;52.008;4.748;2023-04-08T14:58:42;8.93;;;4.53;;
15126;SDS011;7664;52.008;4.748;2023-04-08T15:01:11;7.93;;;4.47;;
15126;SDS011;7664;52.008;4.748;2023-04-08T15:03:39;9.20;;;4.07;;
15126;SDS011;7664;52.008;4.748;2023-04-08T15:06:07;6.03;;;3.58;;
15126;SDS011;7664;52.008;4.748;2023-04-08T15:08:36;7.15;;;4.65;;